Terminal Aerodrome Forecast
Issued by NWS Sioux Falls, SD

Home | Current Version | Previous Version | Graphics & Text | Print | Product List | Glossary Off
Versions: 1 2 3 4 5 6 7 8 9 10 11 12

897
FTUS43 KFSD 190520
TAFFSD
TAF
KFSD 190520Z 1906/2006 22004KT P6SM OVC250
     FM191300 17006KT P6SM BKN250
     FM191600 21009KT P6SM BKN150
     FM192300 30006KT P6SM BKN150=

USA.gov is the U.S. government's official web portal to all federal, state and local government web resources and services.